Have a Safe July 4th! 

Flight Track Log - Related Links

Times and Time Zones

All times are in EDT time to prevent confusion due to time zone crossing. See the DAL5258 flight status page for this flight to view local times or setup timezone preferences in your user account.

Time Position Orientation Groundspeed Altitude Reporting Facility
EDT Latitude Longitude Course Direction KTS MPH feet Rate Location/Type
Thu 11:49:43 PM 40.7667 -73.8500 30° Northeast 149 171 800  Level New York TRACON
Thu 11:50:43 PM 40.7167 -73.8167 153° Southeast 210 242 2,800 2,013 Climbing New York TRACON
Thu 11:52:21 PM 40.7925 -73.7394 38° Northeast 239 275 6,100 2,392 Climbing Boston Center
Thu 11:53:21 PM 40.8575 -73.6886 31° Northeast 252 290 9,100 2,900 Climbing Boston Center
Thu 11:54:21 PM 40.9228 -73.6322 33° Northeast 264 304 11,900 1,950 Climbing Boston Center
Thu 11:55:00 PM 41.1149 -73.5977 30° Northeast  Level FlightAware Approximate
Thu 11:55:21 PM 41.0028 -73.5622 33° Northeast 292 336 13,000  Level Boston Center
Thu 11:56:21 PM 41.0719 -73.5167 26° Northeast 307 353 13,800 1,200 Climbing Boston Center
Thu 11:57:21 PM 41.1786 -73.4797 15° North 337 388 15,400 1,600 Climbing Boston Center
Thu 11:58:21 PM 41.2889 -73.4733 North 383 441 17,000 1,550 Climbing Boston Center
Thu 11:59:21 PM 41.4017 -73.4642 North 402 463 18,500 1,500 Climbing Boston Center
Fri 12:00:21 AM 41.5122 -73.4547 North 419 482 20,000 1,700 Climbing Boston Center
Fri 12:01:21 AM 41.6372 -73.4483 North 419 482 21,900 1,800 Climbing Boston Center
Fri 12:02:21 AM 41.7583 -73.4419 North 425 489 23,600 1,550 Climbing Boston Center
Fri 12:03:21 AM 41.8814 -73.4300 North 425 489 25,000 700 Climbing Boston Center
Fri 12:04:21 AM 42.0064 -73.4236 North 432 497 25,000  Level Boston Center
Fri 12:05:21 AM 42.1175 -73.3525 25° Northeast 471 542 25,000  Level Boston Center
Fri 12:06:21 AM 42.1894 -73.1994 58° Northeast 427 491 25,000  Level Boston Center
Fri 12:07:21 AM 42.2528 -73.0517 60° Northeast 433 498 25,000  Level Boston Center
Fri 12:08:21 AM 42.3161 -72.9033 60° Northeast 445 512 25,000 -550 Level Boston Center
Fri 12:09:21 AM 42.3769 -72.7606 60° Northeast 468 539 23,900 -1,850 Descending Boston Center
Fri 12:10:21 AM 42.4336 -72.6258 60° Northeast 448 516 21,300 -2,550 Descending Boston Center
Fri 12:11:21 AM 42.4922 -72.4936 59° Northeast 424 488 18,800 -2,450 Descending Boston Center
Fri 12:12:21 AM 42.5464 -72.3669 60° Northeast 402 463 16,400 -2,500 Descending Boston Center
Fri 12:13:21 AM 42.5983 -72.2397 61° Northeast 386 444 13,800 -2,450 Descending Boston Center
Fri 12:14:21 AM 42.6522 -72.1097 61° Northeast 364 419 11,500 -1,600 Descending Boston Center
Fri 12:15:21 AM 42.6914 -72.0192 60° Northeast 322 371 10,600 -1,200 Descending Boston Center
Fri 12:16:21 AM 42.7347 -71.9114 61° Northeast 293 337 9,100 -1,400 Descending Boston Center
Fri 12:17:21 AM 42.7656 -71.8406 59° Northeast 280 322 7,800 -2,050 Descending Boston Center
Fri 12:18:21 AM 42.7631 -71.7358 92° East 231 266 5,000 -2,550 Descending Boston Center
Fri 12:19:21 AM 42.7500 -71.6625 104° East 223 257 2,700 -1,400 Descending Boston Center
Fri 12:20:21 AM 42.7997 -71.6111 37° Northeast 177 204 2,200 -250 Descending Boston Center
Fri 12:21:21 AM 42.8286 -71.5711 45° Northeast 170 196 2,200 -100 Level Boston Center
Fri 12:22:21 AM 42.8636 -71.5281 42° Northeast 159 183 2,000 -471 Descending Boston Center
Fri 12:23:03 AM 42.8833 -71.5000 46° Northeast 140 161 1,400 -706 Descending KA90
Fri 12:24:03 AM 42.9167 -71.4667 36° Northeast 127 146 800 2,303 Descending KA90
Fri 12:26:21 AM 42.9689 -71.4072 40° Northeast 126 145 9,000 2,485 Climbing Boston Center
Fri 12:27:21 AM 42.9956 -71.3783 38° Northeast 126 145 9,000  Level Boston Center
Fri 12:28:21 AM 43.0203 -71.3494 41° Northeast 126 145 9,000  Level Boston Center
Fri 12:30:00 AM 42.9328 -71.4358 206° Southwest  Level Estimated
Fri 12:37:00 AM 42.9328 -71.4358 206° Southwest  Level Estimated
Fri 12:38:00 AM 42.9328 -71.4358 206° Southwest  Level Estimated
Fri 12:39:00 AM 42.9328 -71.4358 206° Southwest  Level Estimated
Fri 12:40:00 AM 42.9328 -71.4358 206° Southwest  Level Estimated
Fri 12:41:00 AM 42.9328 -71.4358 206° Southwest  Level Estimated

Login

Don't have an account? Register now (free) for customized features, flight alerts, and more!